sensor_id;sensor_type;location;lat;lon;timestamp;P1;durP1;ratioP1;P2;durP2;ratioP2
75429;SDS011;64127;51.488;5.462;2023-03-14T00:01:46;5.73;;;2.17;;
75429;SDS011;64127;51.488;5.462;2023-03-14T00:04:19;3.53;;;1.90;;
75429;SDS011;64127;51.488;5.462;2023-03-14T00:06:51;5.53;;;2.00;;
75429;SDS011;64127;51.488;5.462;2023-03-14T00:09:23;4.63;;;2.03;;
75429;SDS011;64127;51.488;5.462;2023-03-14T00:11:57;3.80;;;1.97;;
75429;SDS011;64127;51.488;5.462;2023-03-14T00:14:31;4.60;;;2.17;;
75429;SDS011;64127;51.488;5.462;2023-03-14T00:17:03;5.90;;;2.00;;
75429;SDS011;64127;51.488;5.462;2023-03-14T00:19:35;4.80;;;1.90;;
75429;SDS011;64127;51.488;5.462;2023-03-14T00:22:07;5.23;;;1.90;;
75429;SDS011;64127;51.488;5.462;2023-03-14T00:24:39;3.63;;;1.57;;
75429;SDS011;64127;51.488;5.462;2023-03-14T00:27:11;3.60;;;1.50;;
75429;SDS011;64127;51.488;5.462;2023-03-14T00:29:43;5.03;;;1.93;;
75429;SDS011;64127;51.488;5.462;2023-03-14T00:32:15;5.63;;;1.73;;
75429;SDS011;64127;51.488;5.462;2023-03-14T00:34:47;5.17;;;1.70;;
75429;SDS011;64127;51.488;5.462;2023-03-14T00:37:19;6.27;;;2.00;;
75429;SDS011;64127;51.488;5.462;2023-03-14T00:39:51;4.67;;;1.90;;
75429;SDS011;64127;51.488;5.462;2023-03-14T00:42:23;4.03;;;1.60;;
75429;SDS011;64127;51.488;5.462;2023-03-14T00:44:55;4.47;;;1.93;;
75429;SDS011;64127;51.488;5.462;2023-03-14T00:47:27;3.83;;;1.50;;
75429;SDS011;64127;51.488;5.462;2023-03-14T00:49:59;5.00;;;1.80;;
75429;SDS011;64127;51.488;5.462;2023-03-14T00:52:31;4.97;;;1.70;;
75429;SDS011;64127;51.488;5.462;2023-03-14T00:55:03;3.83;;;1.73;;
75429;SDS011;64127;51.488;5.462;2023-03-14T00:57:36;4.10;;;1.70;;
75429;SDS011;64127;51.488;5.462;2023-03-14T01:00:08;4.83;;;1.80;;
75429;SDS011;64127;51.488;5.462;2023-03-14T01:02:43;5.00;;;1.77;;
75429;SDS011;64127;51.488;5.462;2023-03-14T01:05:15;6.63;;;2.10;;
75429;SDS011;64127;51.488;5.462;2023-03-14T01:07:47;4.77;;;1.73;;
75429;SDS011;64127;51.488;5.462;2023-03-14T01:10:20;4.10;;;1.60;;
75429;SDS011;64127;51.488;5.462;2023-03-14T01:12:52;4.90;;;1.50;;
75429;SDS011;64127;51.488;5.462;2023-03-14T01:15:24;7.50;;;1.97;;
75429;SDS011;64127;51.488;5.462;2023-03-14T01:17:56;5.23;;;1.90;;
75429;SDS011;64127;51.488;5.462;2023-03-14T01:20:28;5.37;;;2.00;;
75429;SDS011;64127;51.488;5.462;2023-03-14T01:23:00;7.37;;;2.23;;
75429;SDS011;64127;51.488;5.462;2023-03-14T01:25:32;4.40;;;1.90;;
75429;SDS011;64127;51.488;5.462;2023-03-14T01:28:04;2.70;;;1.47;;
75429;SDS011;64127;51.488;5.462;2023-03-14T01:30:36;3.50;;;1.53;;
75429;SDS011;64127;51.488;5.462;2023-03-14T01:33:08;4.67;;;1.70;;
75429;SDS011;64127;51.488;5.462;2023-03-14T01:35:40;4.73;;;1.73;;
75429;SDS011;64127;51.488;5.462;2023-03-14T01:38:12;5.63;;;1.77;;
75429;SDS011;64127;51.488;5.462;2023-03-14T01:40:44;3.57;;;1.50;;
75429;SDS011;64127;51.488;5.462;2023-03-14T01:43:17;3.33;;;1.60;;
75429;SDS011;64127;51.488;5.462;2023-03-14T01:54:54;3.33;;;1.60;;
75429;SDS011;64127;51.488;5.462;2023-03-14T01:57:37;4.87;;;2.17;;
75429;SDS011;64127;51.488;5.462;2023-03-14T02:00:17;4.33;;;1.80;;
75429;SDS011;64127;51.488;5.462;2023-03-14T02:02:54;6.80;;;2.07;;
75429;SDS011;64127;51.488;5.462;2023-03-14T02:05:33;5.83;;;1.80;;
75429;SDS011;64127;51.488;5.462;2023-03-14T02:08:11;4.87;;;1.77;;
75429;SDS011;64127;51.488;5.462;2023-03-14T02:10:48;5.13;;;1.93;;
75429;SDS011;64127;51.488;5.462;2023-03-14T02:13:22;4.77;;;2.17;;
75429;SDS011;64127;51.488;5.462;2023-03-14T02:15:54;7.23;;;2.37;;
75429;SDS011;64127;51.488;5.462;2023-03-14T02:18:26;5.00;;;2.00;;
75429;SDS011;64127;51.488;5.462;2023-03-14T02:24:24;7.40;;;2.50;;
75429;SDS011;64127;51.488;5.462;2023-03-14T02:27:15;7.53;;;2.23;;
75429;SDS011;64127;51.488;5.462;2023-03-14T02:29:54;7.43;;;2.50;;
75429;SDS011;64127;51.488;5.462;2023-03-14T02:32:43;5.87;;;1.90;;
75429;SDS011;64127;51.488;5.462;2023-03-14T02:35:23;6.33;;;2.50;;
75429;SDS011;64127;51.488;5.462;2023-03-14T02:38:02;6.10;;;2.50;;
75429;SDS011;64127;51.488;5.462;2023-03-14T02:40:46;6.13;;;2.17;;
75429;SDS011;64127;51.488;5.462;2023-03-14T02:43:18;5.53;;;2.10;;
75429;SDS011;64127;51.488;5.462;2023-03-14T02:45:51;5.47;;;2.10;;
75429;SDS011;64127;51.488;5.462;2023-03-14T02:48:28;7.70;;;2.17;;
75429;SDS011;64127;51.488;5.462;2023-03-14T02:51:12;7.17;;;2.10;;
75429;SDS011;64127;51.488;5.462;2023-03-14T02:53:46;4.87;;;1.90;;
75429;SDS011;64127;51.488;5.462;2023-03-14T02:56:18;5.77;;;1.90;;
75429;SDS011;64127;51.488;5.462;2023-03-14T02:58:50;5.13;;;2.00;;
75429;SDS011;64127;51.488;5.462;2023-03-14T03:01:22;6.47;;;2.10;;
75429;SDS011;64127;51.488;5.462;2023-03-14T03:03:55;4.67;;;1.80;;
75429;SDS011;64127;51.488;5.462;2023-03-14T03:06:27;7.87;;;2.40;;
75429;SDS011;64127;51.488;5.462;2023-03-14T03:08:59;6.40;;;2.50;;
75429;SDS011;64127;51.488;5.462;2023-03-14T03:11:31;6.73;;;2.13;;
75429;SDS011;64127;51.488;5.462;2023-03-14T03:14:03;4.97;;;2.03;;
75429;SDS011;64127;51.488;5.462;2023-03-14T03:16:35;6.00;;;2.27;;
75429;SDS011;64127;51.488;5.462;2023-03-14T03:19:07;5.53;;;2.23;;
75429;SDS011;64127;51.488;5.462;2023-03-14T03:21:39;5.87;;;2.37;;
75429;SDS011;64127;51.488;5.462;2023-03-14T03:24:11;6.40;;;2.23;;
75429;SDS011;64127;51.488;5.462;2023-03-14T03:26:43;6.87;;;2.30;;
75429;SDS011;64127;51.488;5.462;2023-03-14T03:29:15;5.10;;;1.90;;
75429;SDS011;64127;51.488;5.462;2023-03-14T03:31:47;5.83;;;2.10;;
75429;SDS011;64127;51.488;5.462;2023-03-14T03:34:19;5.37;;;2.40;;
75429;SDS011;64127;51.488;5.462;2023-03-14T03:36:51;7.13;;;2.10;;
75429;SDS011;64127;51.488;5.462;2023-03-14T03:39:23;5.80;;;2.43;;
75429;SDS011;64127;51.488;5.462;2023-03-14T03:41:55;6.43;;;2.40;;
75429;SDS011;64127;51.488;5.462;2023-03-14T03:44:27;6.10;;;2.00;;
75429;SDS011;64127;51.488;5.462;2023-03-14T03:46:59;6.43;;;1.93;;
75429;SDS011;64127;51.488;5.462;2023-03-14T03:49:31;7.23;;;2.20;;
75429;SDS011;64127;51.488;5.462;2023-03-14T03:52:04;6.10;;;2.00;;
75429;SDS011;64127;51.488;5.462;2023-03-14T03:54:36;5.67;;;1.93;;
75429;SDS011;64127;51.488;5.462;2023-03-14T03:57:08;6.73;;;2.33;;
75429;SDS011;64127;51.488;5.462;2023-03-14T03:59:40;4.47;;;1.97;;
75429;SDS011;64127;51.488;5.462;2023-03-14T04:02:12;5.90;;;2.10;;
75429;SDS011;64127;51.488;5.462;2023-03-14T04:04:44;6.33;;;2.00;;
75429;SDS011;64127;51.488;5.462;2023-03-14T04:07:16;4.90;;;2.17;;
75429;SDS011;64127;51.488;5.462;2023-03-14T04:09:48;6.10;;;2.13;;
75429;SDS011;64127;51.488;5.462;2023-03-14T04:12:21;6.23;;;1.90;;
75429;SDS011;64127;51.488;5.462;2023-03-14T04:14:52;7.07;;;2.00;;
75429;SDS011;64127;51.488;5.462;2023-03-14T04:17:24;6.47;;;1.90;;
75429;SDS011;64127;51.488;5.462;2023-03-14T04:19:56;3.87;;;1.90;;
75429;SDS011;64127;51.488;5.462;2023-03-14T04:22:28;3.87;;;1.87;;
75429;SDS011;64127;51.488;5.462;2023-03-14T04:25:00;3.93;;;1.50;;
75429;SDS011;64127;51.488;5.462;2023-03-14T04:27:34;4.80;;;1.60;;
75429;SDS011;64127;51.488;5.462;2023-03-14T04:30:06;4.37;;;1.40;;
75429;SDS011;64127;51.488;5.462;2023-03-14T04:32:39;5.97;;;1.60;;
75429;SDS011;64127;51.488;5.462;2023-03-14T04:35:11;5.27;;;1.63;;
75429;SDS011;64127;51.488;5.462;2023-03-14T04:37:43;2.50;;;1.60;;
75429;SDS011;64127;51.488;5.462;2023-03-14T04:40:15;2.67;;;1.20;;
75429;SDS011;64127;51.488;5.462;2023-03-14T04:42:49;4.40;;;1.60;;
75429;SDS011;64127;51.488;5.462;2023-03-14T04:45:21;3.30;;;1.47;;
75429;SDS011;64127;51.488;5.462;2023-03-14T04:47:52;2.50;;;1.27;;
75429;SDS011;64127;51.488;5.462;2023-03-14T04:50:24;3.70;;;1.50;;
75429;SDS011;64127;51.488;5.462;2023-03-14T04:52:56;3.67;;;1.67;;
75429;SDS011;64127;51.488;5.462;2023-03-14T04:55:28;2.73;;;1.23;;
75429;SDS011;64127;51.488;5.462;2023-03-14T04:58:00;1.63;;;1.20;;
75429;SDS011;64127;51.488;5.462;2023-03-14T05:00:32;2.93;;;1.47;;
75429;SDS011;64127;51.488;5.462;2023-03-14T05:03:05;2.13;;;1.20;;
75429;SDS011;64127;51.488;5.462;2023-03-14T05:05:37;2.77;;;1.60;;
75429;SDS011;64127;51.488;5.462;2023-03-14T05:08:09;3.87;;;1.60;;
75429;SDS011;64127;51.488;5.462;2023-03-14T05:10:41;3.10;;;1.57;;
75429;SDS011;64127;51.488;5.462;2023-03-14T05:13:13;3.73;;;1.80;;
75429;SDS011;64127;51.488;5.462;2023-03-14T05:15:45;2.83;;;1.50;;
75429;SDS011;64127;51.488;5.462;2023-03-14T05:18:18;2.90;;;1.60;;
75429;SDS011;64127;51.488;5.462;2023-03-14T05:20:50;3.27;;;1.63;;
75429;SDS011;64127;51.488;5.462;2023-03-14T05:23:23;3.43;;;1.80;;
75429;SDS011;64127;51.488;5.462;2023-03-14T05:25:55;3.53;;;1.60;;
75429;SDS011;64127;51.488;5.462;2023-03-14T05:28:27;4.57;;;2.20;;
75429;SDS011;64127;51.488;5.462;2023-03-14T05:30:59;4.47;;;1.90;;
75429;SDS011;64127;51.488;5.462;2023-03-14T05:33:31;3.33;;;1.93;;
75429;SDS011;64127;51.488;5.462;2023-03-14T05:36:03;3.37;;;2.00;;
75429;SDS011;64127;51.488;5.462;2023-03-14T05:38:36;3.07;;;1.70;;
75429;SDS011;64127;51.488;5.462;2023-03-14T05:41:08;4.27;;;2.03;;
75429;SDS011;64127;51.488;5.462;2023-03-14T05:43:40;3.87;;;1.70;;
75429;SDS011;64127;51.488;5.462;2023-03-14T05:46:12;3.47;;;2.10;;
75429;SDS011;64127;51.488;5.462;2023-03-14T05:48:44;5.40;;;2.27;;
75429;SDS011;64127;51.488;5.462;2023-03-14T05:51:16;3.60;;;2.10;;
75429;SDS011;64127;51.488;5.462;2023-03-14T05:53:48;3.93;;;2.00;;
75429;SDS011;64127;51.488;5.462;2023-03-14T05:56:20;3.85;;;2.20;;
75429;SDS011;64127;51.488;5.462;2023-03-14T05:58:52;4.50;;;2.53;;
75429;SDS011;64127;51.488;5.462;2023-03-14T06:01:24;3.37;;;2.10;;
75429;SDS011;64127;51.488;5.462;2023-03-14T06:03:56;5.93;;;2.07;;
75429;SDS011;64127;51.488;5.462;2023-03-14T06:06:28;4.33;;;2.40;;
75429;SDS011;64127;51.488;5.462;2023-03-14T06:09:00;6.23;;;2.10;;
75429;SDS011;64127;51.488;5.462;2023-03-14T06:11:31;3.80;;;1.97;;
75429;SDS011;64127;51.488;5.462;2023-03-14T06:14:03;4.47;;;2.40;;
75429;SDS011;64127;51.488;5.462;2023-03-14T06:16:35;5.77;;;2.53;;
75429;SDS011;64127;51.488;5.462;2023-03-14T06:19:08;4.83;;;2.30;;
75429;SDS011;64127;51.488;5.462;2023-03-14T06:21:39;3.67;;;2.40;;
75429;SDS011;64127;51.488;5.462;2023-03-14T06:24:11;4.53;;;2.30;;
75429;SDS011;64127;51.488;5.462;2023-03-14T06:26:43;4.97;;;2.40;;
75429;SDS011;64127;51.488;5.462;2023-03-14T06:29:15;4.27;;;2.10;;
75429;SDS011;64127;51.488;5.462;2023-03-14T06:31:47;5.80;;;2.47;;
75429;SDS011;64127;51.488;5.462;2023-03-14T06:34:19;3.87;;;2.50;;
75429;SDS011;64127;51.488;5.462;2023-03-14T06:36:51;3.63;;;2.40;;
75429;SDS011;64127;51.488;5.462;2023-03-14T06:39:23;4.97;;;2.50;;
75429;SDS011;64127;51.488;5.462;2023-03-14T06:41:56;2.43;;;2.23;;
75429;SDS011;64127;51.488;5.462;2023-03-14T06:44:28;3.83;;;2.47;;
75429;SDS011;64127;51.488;5.462;2023-03-14T06:47:00;3.83;;;2.20;;
75429;SDS011;64127;51.488;5.462;2023-03-14T06:49:32;3.33;;;2.60;;
75429;SDS011;64127;51.488;5.462;2023-03-14T06:52:04;2.80;;;2.50;;
75429;SDS011;64127;51.488;5.462;2023-03-14T06:54:36;5.77;;;2.83;;
75429;SDS011;64127;51.488;5.462;2023-03-14T06:57:08;4.07;;;2.50;;
75429;SDS011;64127;51.488;5.462;2023-03-14T06:59:40;3.90;;;2.53;;
75429;SDS011;64127;51.488;5.462;2023-03-14T07:02:12;4.30;;;2.70;;
75429;SDS011;64127;51.488;5.462;2023-03-14T07:04:44;6.67;;;2.83;;
75429;SDS011;64127;51.488;5.462;2023-03-14T07:07:16;3.53;;;2.80;;
75429;SDS011;64127;51.488;5.462;2023-03-14T07:09:48;3.63;;;2.73;;
75429;SDS011;64127;51.488;5.462;2023-03-14T07:12:21;4.80;;;3.00;;
75429;SDS011;64127;51.488;5.462;2023-03-14T07:14:53;4.10;;;2.70;;
75429;SDS011;64127;51.488;5.462;2023-03-14T07:17:25;4.30;;;3.30;;
75429;SDS011;64127;51.488;5.462;2023-03-14T07:19:57;3.83;;;3.00;;
75429;SDS011;64127;51.488;5.462;2023-03-14T07:22:30;3.90;;;3.30;;
75429;SDS011;64127;51.488;5.462;2023-03-14T07:25:03;4.53;;;3.20;;
75429;SDS011;64127;51.488;5.462;2023-03-14T07:27:35;6.80;;;3.10;;
75429;SDS011;64127;51.488;5.462;2023-03-14T07:30:07;3.57;;;3.27;;
75429;SDS011;64127;51.488;5.462;2023-03-14T07:32:40;3.50;;;3.20;;
75429;SDS011;64127;51.488;5.462;2023-03-14T07:35:12;4.43;;;3.60;;
75429;SDS011;64127;51.488;5.462;2023-03-14T07:37:44;2.60;;;2.17;;
75429;SDS011;64127;51.488;5.462;2023-03-14T07:40:16;2.30;;;1.70;;
75429;SDS011;64127;51.488;5.462;2023-03-14T07:42:48;2.00;;;1.50;;
75429;SDS011;64127;51.488;5.462;2023-03-14T07:45:21;1.67;;;1.10;;
75429;SDS011;64127;51.488;5.462;2023-03-14T07:47:55;0.90;;;0.90;;
75429;SDS011;64127;51.488;5.462;2023-03-14T07:50:28;1.00;;;0.90;;
75429;SDS011;64127;51.488;5.462;2023-03-14T07:53:01;1.37;;;1.17;;
75429;SDS011;64127;51.488;5.462;2023-03-14T07:55:33;2.20;;;1.00;;
75429;SDS011;64127;51.488;5.462;2023-03-14T07:58:05;1.73;;;1.30;;
75429;SDS011;64127;51.488;5.462;2023-03-14T08:00:37;1.30;;;1.20;;
75429;SDS011;64127;51.488;5.462;2023-03-14T08:03:10;3.07;;;1.10;;
75429;SDS011;64127;51.488;5.462;2023-03-14T08:05:42;1.33;;;1.00;;
75429;SDS011;64127;51.488;5.462;2023-03-14T08:08:16;0.80;;;0.80;;
75429;SDS011;64127;51.488;5.462;2023-03-14T08:10:48;1.10;;;1.10;;
75429;SDS011;64127;51.488;5.462;2023-03-14T08:13:20;2.27;;;1.50;;
75429;SDS011;64127;51.488;5.462;2023-03-14T08:15:54;2.87;;;1.70;;
75429;SDS011;64127;51.488;5.462;2023-03-14T08:18:26;2.57;;;2.10;;
75429;SDS011;64127;51.488;5.462;2023-03-14T08:20:58;2.60;;;1.70;;
75429;SDS011;64127;51.488;5.462;2023-03-14T08:23:30;2.13;;;1.60;;
75429;SDS011;64127;51.488;5.462;2023-03-14T08:26:03;2.13;;;1.50;;
75429;SDS011;64127;51.488;5.462;2023-03-14T08:28:38;1.63;;;1.40;;
75429;SDS011;64127;51.488;5.462;2023-03-14T08:31:11;1.87;;;1.30;;
75429;SDS011;64127;51.488;5.462;2023-03-14T08:33:43;1.83;;;1.50;;
75429;SDS011;64127;51.488;5.462;2023-03-14T08:36:15;1.53;;;1.40;;
75429;SDS011;64127;51.488;5.462;2023-03-14T08:38:47;1.77;;;1.30;;
75429;SDS011;64127;51.488;5.462;2023-03-14T08:41:19;1.87;;;1.23;;
75429;SDS011;64127;51.488;5.462;2023-03-14T08:43:51;3.10;;;1.40;;
75429;SDS011;64127;51.488;5.462;2023-03-14T08:46:23;1.90;;;1.40;;
75429;SDS011;64127;51.488;5.462;2023-03-14T08:48:56;2.20;;;1.40;;
75429;SDS011;64127;51.488;5.462;2023-03-14T08:51:27;2.73;;;1.70;;
75429;SDS011;64127;51.488;5.462;2023-03-14T08:54:00;3.73;;;1.73;;
75429;SDS011;64127;51.488;5.462;2023-03-14T08:56:31;3.23;;;1.50;;
75429;SDS011;64127;51.488;5.462;2023-03-14T08:59:04;3.53;;;1.97;;
75429;SDS011;64127;51.488;5.462;2023-03-14T09:01:36;3.23;;;1.60;;
75429;SDS011;64127;51.488;5.462;2023-03-14T09:04:08;4.53;;;1.90;;
75429;SDS011;64127;51.488;5.462;2023-03-14T09:06:41;3.73;;;1.77;;
75429;SDS011;64127;51.488;5.462;2023-03-14T09:09:13;3.67;;;1.80;;
75429;SDS011;64127;51.488;5.462;2023-03-14T09:11:45;3.43;;;2.00;;
75429;SDS011;64127;51.488;5.462;2023-03-14T09:14:17;3.23;;;1.80;;
75429;SDS011;64127;51.488;5.462;2023-03-14T09:16:49;5.33;;;2.10;;
75429;SDS011;64127;51.488;5.462;2023-03-14T09:43:00;2.90;;;1.70;;
75429;SDS011;64127;51.488;5.462;2023-03-14T09:45:38;2.97;;;1.40;;
75429;SDS011;64127;51.488;5.462;2023-03-14T09:54:39;1.50;;;0.87;;
75429;SDS011;64127;51.488;5.462;2023-03-14T09:57:23;0.63;;;0.63;;
75429;SDS011;64127;51.488;5.462;2023-03-14T10:00:00;2.07;;;0.90;;
75429;SDS011;64127;51.488;5.462;2023-03-14T10:02:55;1.03;;;0.57;;
75429;SDS011;64127;51.488;5.462;2023-03-14T10:05:39;2.07;;;0.90;;
75429;SDS011;64127;51.488;5.462;2023-03-14T10:08:13;1.70;;;0.73;;
75429;SDS011;64127;51.488;5.462;2023-03-14T10:10:45;0.70;;;0.67;;
75429;SDS011;64127;51.488;5.462;2023-03-14T10:16:01;2.93;;;0.90;;
75429;SDS011;64127;51.488;5.462;2023-03-14T10:18:37;1.20;;;1.00;;
75429;SDS011;64127;51.488;5.462;2023-03-14T10:21:29;1.63;;;0.80;;
75429;SDS011;64127;51.488;5.462;2023-03-14T10:24:18;2.77;;;1.20;;
75429;SDS011;64127;51.488;5.462;2023-03-14T10:26:59;2.17;;;1.10;;
75429;SDS011;64127;51.488;5.462;2023-03-14T10:29:37;3.23;;;1.30;;
75429;SDS011;64127;51.488;5.462;2023-03-14T10:32:37;1.87;;;1.20;;
75429;SDS011;64127;51.488;5.462;2023-03-14T10:37:49;2.40;;;1.20;;
75429;SDS011;64127;51.488;5.462;2023-03-14T10:40:32;5.00;;;1.60;;
75429;SDS011;64127;51.488;5.462;2023-03-14T10:43:13;4.90;;;1.37;;
75429;SDS011;64127;51.488;5.462;2023-03-14T10:46:09;7.87;;;1.80;;
75429;SDS011;64127;51.488;5.462;2023-03-14T10:48:48;7.20;;;1.77;;
75429;SDS011;64127;51.488;5.462;2023-03-14T10:51:27;5.10;;;1.47;;
75429;SDS011;64127;51.488;5.462;2023-03-14T10:54:02;5.93;;;1.87;;
75429;SDS011;64127;51.488;5.462;2023-03-14T10:56:57;6.50;;;1.80;;
75429;SDS011;64127;51.488;5.462;2023-03-14T10:59:35;6.97;;;1.87;;
75429;SDS011;64127;51.488;5.462;2023-03-14T11:05:24;5.17;;;1.87;;
75429;SDS011;64127;51.488;5.462;2023-03-14T11:08:15;8.03;;;2.27;;
75429;SDS011;64127;51.488;5.462;2023-03-14T11:11:18;7.37;;;2.13;;
75429;SDS011;64127;51.488;5.462;2023-03-14T11:23:25;7.77;;;2.30;;
75429;SDS011;64127;51.488;5.462;2023-03-14T11:28:53;7.23;;;2.57;;
75429;SDS011;64127;51.488;5.462;2023-03-14T11:31:33;8.63;;;2.50;;
75429;SDS011;64127;51.488;5.462;2023-03-14T11:39:39;11.23;;;2.70;;
75429;SDS011;64127;51.488;5.462;2023-03-14T11:42:18;8.07;;;2.90;;
75429;SDS011;64127;51.488;5.462;2023-03-14T11:44:51;8.07;;;2.33;;
75429;SDS011;64127;51.488;5.462;2023-03-14T11:47:29;8.37;;;2.60;;
75429;SDS011;64127;51.488;5.462;2023-03-14T11:50:18;6.07;;;2.33;;
75429;SDS011;64127;51.488;5.462;2023-03-14T11:53:08;10.13;;;2.63;;
75429;SDS011;64127;51.488;5.462;2023-03-14T11:55:47;9.17;;;2.60;;
75429;SDS011;64127;51.488;5.462;2023-03-14T11:58:25;7.03;;;2.37;;
75429;SDS011;64127;51.488;5.462;2023-03-14T12:01:02;6.57;;;2.40;;
75429;SDS011;64127;51.488;5.462;2023-03-14T12:03:43;13.40;;;3.20;;
75429;SDS011;64127;51.488;5.462;2023-03-14T12:09:21;10.83;;;2.80;;
75429;SDS011;64127;51.488;5.462;2023-03-14T12:11:58;11.10;;;3.00;;
75429;SDS011;64127;51.488;5.462;2023-03-14T12:14:35;16.07;;;2.90;;
75429;SDS011;64127;51.488;5.462;2023-03-14T12:17:20;8.43;;;2.90;;
75429;SDS011;64127;51.488;5.462;2023-03-14T12:20:15;10.80;;;2.73;;
75429;SDS011;64127;51.488;5.462;2023-03-14T12:23:04;10.17;;;2.73;;
75429;SDS011;64127;51.488;5.462;2023-03-14T12:25:43;8.10;;;2.93;;
75429;SDS011;64127;51.488;5.462;2023-03-14T12:28:19;12.50;;;3.10;;
75429;SDS011;64127;51.488;5.462;2023-03-14T12:40:12;15.57;;;3.10;;
75429;SDS011;64127;51.488;5.462;2023-03-14T12:45:22;11.33;;;3.07;;
75429;SDS011;64127;51.488;5.462;2023-03-14T12:48:17;11.17;;;3.13;;
75429;SDS011;64127;51.488;5.462;2023-03-14T12:51:02;10.97;;;3.00;;
75429;SDS011;64127;51.488;5.462;2023-03-14T12:56:36;12.07;;;3.20;;
75429;SDS011;64127;51.488;5.462;2023-03-14T12:59:30;12.50;;;3.10;;
75429;SDS011;64127;51.488;5.462;2023-03-14T13:04:47;9.80;;;3.40;;
75429;SDS011;64127;51.488;5.462;2023-03-14T13:10:27;11.90;;;3.20;;
75429;SDS011;64127;51.488;5.462;2023-03-14T13:13:20;9.13;;;3.07;;
75429;SDS011;64127;51.488;5.462;2023-03-14T13:15:57;14.60;;;3.43;;
75429;SDS011;64127;51.488;5.462;2023-03-14T13:18:36;8.93;;;3.17;;
75429;SDS011;64127;51.488;5.462;2023-03-14T13:21:18;8.63;;;2.40;;
75429;SDS011;64127;51.488;5.462;2023-03-14T13:24:35;7.10;;;2.50;;
75429;SDS011;64127;51.488;5.462;2023-03-14T13:26:57;7.43;;;2.40;;
75429;SDS011;64127;51.488;5.462;2023-03-14T13:29:32;7.20;;;2.40;;
75429;SDS011;64127;51.488;5.462;2023-03-14T13:32:16;5.70;;;2.00;;
75429;SDS011;64127;51.488;5.462;2023-03-14T13:34:55;4.67;;;2.20;;
75429;SDS011;64127;51.488;5.462;2023-03-14T13:37:30;5.37;;;2.03;;
75429;SDS011;64127;51.488;5.462;2023-03-14T13:40:30;5.97;;;2.53;;
75429;SDS011;64127;51.488;5.462;2023-03-14T13:43:10;8.37;;;2.53;;
75429;SDS011;64127;51.488;5.462;2023-03-14T13:48:40;4.53;;;2.10;;
75429;SDS011;64127;51.488;5.462;2023-03-14T13:51:37;7.80;;;2.30;;
75429;SDS011;64127;51.488;5.462;2023-03-14T13:54:15;6.33;;;2.17;;
75429;SDS011;64127;51.488;5.462;2023-03-14T13:56:58;6.77;;;2.37;;
75429;SDS011;64127;51.488;5.462;2023-03-14T13:59:36;6.27;;;1.93;;
75429;SDS011;64127;51.488;5.462;2023-03-14T14:02:13;7.63;;;2.53;;
75429;SDS011;64127;51.488;5.462;2023-03-14T14:04:48;7.17;;;2.33;;
75429;SDS011;64127;51.488;5.462;2023-03-14T14:07:20;7.13;;;2.37;;
75429;SDS011;64127;51.488;5.462;2023-03-14T14:22:16;6.50;;;2.10;;
75429;SDS011;64127;51.488;5.462;2023-03-14T14:24:49;4.40;;;1.70;;
75429;SDS011;64127;51.488;5.462;2023-03-14T14:27:24;6.43;;;2.10;;
75429;SDS011;64127;51.488;5.462;2023-03-14T14:34:18;9.23;;;2.10;;
75429;SDS011;64127;51.488;5.462;2023-03-14T14:36:51;5.70;;;2.07;;
75429;SDS011;64127;51.488;5.462;2023-03-14T14:39:24;6.20;;;1.80;;
75429;SDS011;64127;51.488;5.462;2023-03-14T14:42:00;6.60;;;1.97;;
75429;SDS011;64127;51.488;5.462;2023-03-14T14:44:33;5.87;;;1.90;;
75429;SDS011;64127;51.488;5.462;2023-03-14T14:47:11;7.97;;;2.23;;
75429;SDS011;64127;51.488;5.462;2023-03-14T14:49:51;4.93;;;2.00;;
75429;SDS011;64127;51.488;5.462;2023-03-14T14:52:42;7.47;;;1.93;;
75429;SDS011;64127;51.488;5.462;2023-03-14T14:55:17;5.70;;;1.97;;
75429;SDS011;64127;51.488;5.462;2023-03-14T14:57:54;6.67;;;1.80;;
75429;SDS011;64127;51.488;5.462;2023-03-14T15:00:29;5.37;;;1.87;;
75429;SDS011;64127;51.488;5.462;2023-03-14T15:03:02;5.67;;;1.67;;
75429;SDS011;64127;51.488;5.462;2023-03-14T15:05:34;8.73;;;1.53;;
75429;SDS011;64127;51.488;5.462;2023-03-14T15:08:09;6.37;;;2.10;;
75429;SDS011;64127;51.488;5.462;2023-03-14T15:10:42;6.00;;;2.00;;
75429;SDS011;64127;51.488;5.462;2023-03-14T15:13:14;4.57;;;1.80;;
75429;SDS011;64127;51.488;5.462;2023-03-14T15:15:46;6.70;;;2.17;;
75429;SDS011;64127;51.488;5.462;2023-03-14T15:18:21;5.90;;;2.20;;
75429;SDS011;64127;51.488;5.462;2023-03-14T15:20:58;7.17;;;1.90;;
75429;SDS011;64127;51.488;5.462;2023-03-14T15:23:31;7.70;;;1.87;;
75429;SDS011;64127;51.488;5.462;2023-03-14T15:26:08;4.47;;;1.63;;
75429;SDS011;64127;51.488;5.462;2023-03-14T15:28:47;5.00;;;1.83;;
75429;SDS011;64127;51.488;5.462;2023-03-14T15:31:19;6.57;;;2.20;;
75429;SDS011;64127;51.488;5.462;2023-03-14T15:33:52;7.37;;;2.43;;
75429;SDS011;64127;51.488;5.462;2023-03-14T15:36:29;7.20;;;2.10;;
75429;SDS011;64127;51.488;5.462;2023-03-14T15:39:05;5.50;;;2.10;;
75429;SDS011;64127;51.488;5.462;2023-03-14T15:41:38;5.63;;;2.00;;
75429;SDS011;64127;51.488;5.462;2023-03-14T15:44:10;5.60;;;1.83;;
75429;SDS011;64127;51.488;5.462;2023-03-14T15:46:42;4.93;;;1.77;;
75429;SDS011;64127;51.488;5.462;2023-03-14T15:49:14;4.07;;;1.77;;
75429;SDS011;64127;51.488;5.462;2023-03-14T15:51:46;5.77;;;1.67;;
75429;SDS011;64127;51.488;5.462;2023-03-14T15:54:18;5.77;;;2.10;;
75429;SDS011;64127;51.488;5.462;2023-03-14T15:56:50;6.80;;;1.90;;
75429;SDS011;64127;51.488;5.462;2023-03-14T15:59:23;4.53;;;1.73;;
75429;SDS011;64127;51.488;5.462;2023-03-14T16:01:56;5.87;;;2.00;;
75429;SDS011;64127;51.488;5.462;2023-03-14T16:04:28;7.13;;;1.90;;
75429;SDS011;64127;51.488;5.462;2023-03-14T16:07:00;6.13;;;2.30;;
75429;SDS011;64127;51.488;5.462;2023-03-14T16:09:32;6.33;;;2.00;;
75429;SDS011;64127;51.488;5.462;2023-03-14T16:12:05;5.17;;;1.77;;
75429;SDS011;64127;51.488;5.462;2023-03-14T16:14:38;9.90;;;2.30;;
75429;SDS011;64127;51.488;5.462;2023-03-14T16:17:13;4.73;;;1.80;;
75429;SDS011;64127;51.488;5.462;2023-03-14T16:19:46;6.50;;;1.80;;
75429;SDS011;64127;51.488;5.462;2023-03-14T16:22:18;6.20;;;2.23;;
75429;SDS011;64127;51.488;5.462;2023-03-14T16:24:50;8.20;;;2.67;;
75429;SDS011;64127;51.488;5.462;2023-03-14T16:27:22;6.53;;;2.50;;
75429;SDS011;64127;51.488;5.462;2023-03-14T16:29:54;7.47;;;2.03;;
75429;SDS011;64127;51.488;5.462;2023-03-14T16:32:26;5.23;;;2.20;;
75429;SDS011;64127;51.488;5.462;2023-03-14T16:34:59;4.97;;;2.00;;
75429;SDS011;64127;51.488;5.462;2023-03-14T16:37:31;6.30;;;1.73;;
75429;SDS011;64127;51.488;5.462;2023-03-14T16:40:05;8.63;;;2.10;;
75429;SDS011;64127;51.488;5.462;2023-03-14T16:42:43;6.43;;;2.27;;
75429;SDS011;64127;51.488;5.462;2023-03-14T16:45:35;6.00;;;2.20;;
75429;SDS011;64127;51.488;5.462;2023-03-14T16:48:08;6.23;;;2.10;;
75429;SDS011;64127;51.488;5.462;2023-03-14T16:50:40;6.47;;;2.10;;
75429;SDS011;64127;51.488;5.462;2023-03-14T16:53:13;8.27;;;2.30;;
75429;SDS011;64127;51.488;5.462;2023-03-14T16:55:45;6.77;;;2.33;;
75429;SDS011;64127;51.488;5.462;2023-03-14T16:58:17;3.97;;;1.87;;
75429;SDS011;64127;51.488;5.462;2023-03-14T17:00:51;5.50;;;2.20;;
75429;SDS011;64127;51.488;5.462;2023-03-14T17:03:23;4.77;;;1.80;;
75429;SDS011;64127;51.488;5.462;2023-03-14T17:05:58;8.63;;;2.47;;
75429;SDS011;64127;51.488;5.462;2023-03-14T17:08:30;5.90;;;2.13;;
75429;SDS011;64127;51.488;5.462;2023-03-14T17:11:02;6.70;;;2.20;;
75429;SDS011;64127;51.488;5.462;2023-03-14T17:13:34;4.93;;;1.63;;
75429;SDS011;64127;51.488;5.462;2023-03-14T17:16:07;4.83;;;1.83;;
75429;SDS011;64127;51.488;5.462;2023-03-14T17:18:40;6.47;;;2.10;;
75429;SDS011;64127;51.488;5.462;2023-03-14T17:21:12;6.33;;;1.90;;
75429;SDS011;64127;51.488;5.462;2023-03-14T17:23:44;8.10;;;2.10;;
75429;SDS011;64127;51.488;5.462;2023-03-14T17:26:16;7.30;;;2.50;;